KRIV/RIV METAR and TAF weather

Enter ICAO airport designator
Station Type Date Time Source
KRIV METAR 2021/08/05 03:58 UTC NOAA

KRIV 050358Z AUTO 32006KT 10SM CLR 26/13 A2990 RMK AO2 SLP110 T02640128


Station Type Date Time Source
KRIV Decoded METAR 2021/08/05 03:58 UTC NOAA

Riverside / March Air Force Base, CA, United States (KRIV) 33-54N 117-15W 468M
Aug 04, 2021 - 11:58 PM EDT / 2021.08.05 0358 UTC
Wind: from the NW (320 degrees) at 7 MPH (6 KT):0
Visibility: 10 mile(s):0
Sky conditions: clear
Temperature: 79.5 F (26.4 C)
Dew Point: 55.0 F (12.8 C)
Relative Humidity: 42%
Pressure (altimeter): 29.9 in. Hg (1012 hPa)
ob: KRIV 050358Z AUTO 32006KT 10SM CLR 26/13 A2990 RMK AO2 SLP110 T02640128
cycle: 4

Station Type Date Time Source
KRIV TAF 2021/08/05 04:09 UTC NOAA

TAF TAF KRIV 050400Z 0504/0610 31006KT 9999 SKC QNH2990INS
BECMG 0506/0507 VRB04KT 9999 SKC QNH2993INS
BECMG 0519/0520 31009KT 9999 SKC 510005 QNH2988INS
TEMPO 0521/0602 31012G20KT
BECMG 0605/0606 VRB04KT 9999 SKC QNH2992INS TX38/0522Z TN17/0513Z

Example: see airport list